ADDS METAR Data INFO
IDs: Format: Raw Decoded Include TAF

Data at: 0257 UTC 21 Jan 2018

KCMI 210253Z 18011KT 7SM OVC030 04/04 A3001 RMK AO2 SLP170 T00440039 50002
KCMI 210153Z 17012KT 8SM OVC030 04/03 A3002 RMK AO2 SLP170 T00440033
KCMI 210146Z 17011KT 9SM OVC030 04/03 A3002 RMK AO2 T00390028
KCMI 210053Z 16010KT 10SM OVC029 04/01 A3001 RMK AO2 SLP170 T00390011
KCMI 202353Z 17010KT 10SM BKN018 OVC028 04/01 A3001 RMK AO2 SLP169 T00390011 10056 20033 51008
KCMI 202253Z 19009KT 10SM FEW013 OVC023 04/02 A3001 RMK AO2 SLP167 T00390022
KCMI 202153Z 17011KT 10SM OVC020 04/02 A2999 RMK AO2 SLP161 T00390022
KCMI 202053Z AUTO 18008KT 10SM OVC019 04/03 A2998 RMK AO2 SLP159 T00440028 56010
KCMI 201953Z 18008KT 10SM OVC015 05/03 A2999 RMK AO2 SLP161 T00500033
KCMI 201921Z 20010KT 10SM SCT012 OVC019 06/03 A2998 RMK AO2 T00560033
KCMI 201853Z 21009KT 10SM OVC012 05/03 A2999 RMK AO2 SLP163 T00500028
KCMI 201822Z 22010KT 10SM OVC014 04/02 A3000 RMK AO2 T00440022
KCMI 201753Z 21009KT 10SM OVC015 04/02 A3001 RMK AO2 SLP169 T00390017 10039 21022 50001
KCMI 201653Z 21013KT 10SM OVC019 04/01 A3003 RMK AO2 SLP175 T00390006
KCMI 201634Z 21012KT 10SM BKN019 03/01 A3003 RMK AO2 T00330006
KCMI 201553Z 20014KT 10SM CLR 03/M01 A3003 RMK AO2 SLP174 T00281006
KCMI 201453Z 20012KT 10SM CLR 01/M02 A3001 RMK AO2 SLP169 T00111017 53016
KCMI 201353Z 20010KT 10SM CLR M01/M03 A2999 RMK AO2 SLP162 T10111028
KCMI 201253Z 19011KT 10SM CLR M02/M03 A2997 RMK AO2 SLP157 T10171033
KCMI 201153Z 20008KT 10SM CLR M02/M03 A2996 RMK AO2 SLP152 T10221033 10000 21022 53005
KCMI 201053Z AUTO 20009KT 10SM CLR M01/M03 A2995 RMK AO2 SLP149 T10111033
KCMI 200953Z AUTO 20010KT 10SM CLR M01/M03 A2994 RMK AO2 SLP145 T10111028
KCMI 200853Z AUTO 20009KT 10SM CLR M01/M03 A2994 RMK AO2 SLP147 T10111028 51010
KCMI 200753Z AUTO 21011KT 10SM CLR 00/M02 A2993 RMK AO2 SLP142 T00001022
KCMI 200653Z AUTO 21011KT 10SM CLR 00/M02 A2993 RMK AO2 SLP141 T00001022
KCMI 200553Z AUTO 20014KT 10SM CLR 00/M02 A2991 RMK AO2 SLP136 T00001022 10017 20000 400331072 53007
KCMI 200453Z AUTO 20017KT 10SM CLR 01/M03 A2990 RMK AO2 SLP131 T00061028
KCMI 200353Z 20017KT 10SM CLR 01/M03 A2990 RMK AO2 SLP133 T00061028
KCMI 200253Z 19014KT 10SM CLR 01/M03 A2989 RMK AO2 SLP130 T00061028 58003
KCMI 200153Z 19017KT 10SM CLR 01/M03 A2990 RMK AO2 SLP133 T00111028
KCMI 200053Z 18018KT 10SM CLR 01/M02 A2990 RMK AO2 SLP134 T00111022
KCMI 192353Z 18018KT 10SM CLR 02/M02 A2990 RMK AO2 SLP134 T00171022 10033 20011 53001
KCMI 192253Z 18017KT 10SM CLR 02/M02 A2990 RMK AO2 SLP133 T00171022
KCMI 192153Z 18017KT 10SM CLR 03/M01 A2990 RMK AO2 SLP134 T00281011
KCMI 192053Z 18013KT 10SM CLR 03/M01 A2990 RMK AO2 SLP133 T00331011 56026
KCMI 191953Z 19017KT 10SM CLR 03/M02 A2992 RMK AO2 SLP140 T00281017
KCMI 191853Z 19016KT 10SM CLR 02/M03 A2994 RMK AO2 SLP148 T00221028
KCMI 191753Z 20015KT 10SM CLR 01/M04 A2998 RMK AO2 SLP161 T00111039 10011 21061 58018
KCMI 191653Z 20017KT 10SM CLR 00/M05 A3000 RMK AO2 SLP168 T00001050
KCMI 191553Z 19014KT 10SM CLR M02/M06 A3003 RMK AO2 SLP180 T10171061